Time;durP1;ratioP1;P1;durP2;ratioP2;P2;SDS_P1;SDS_P2;PMS_P1;PMS_P2;Temp;Humidity;BMP_temperature;BMP_pressure;BME280_temperature;BME280_humidity;BME280_pressure;Samples;Min_cycle;Max_cycle;Signal;HPM_P1;HPM_P2
2021/01/13 00:00:33;;;;;;;29.98;16.35;;;0.60;78.50;;;;;;4853664;29;20128;-71
2021/01/13 00:03:00;;;;;;;28.17;16.60;;;0.60;78.70;;;;;;4852444;29;20053;-71
2021/01/13 00:05:27;;;;;;;33.83;16.70;;;0.70;78.80;;;;;;4850564;29;20053;-71
2021/01/13 00:07:54;;;;;;;38.15;17.65;;;0.70;78.80;;;;;;4850349;29;20069;-70
2021/01/13 00:10:24;;;;;;;27.45;15.80;;;0.70;79.00;;;;;;4854938;29;20106;-71
2021/01/13 00:12:51;;;;;;;36.25;16.50;;;0.70;79.00;;;;;;4852844;29;20516;-71
2021/01/13 00:15:18;;;;;;;31.90;16.08;;;0.70;79.00;;;;;;4848784;29;20045;-72
2021/01/13 00:17:49;;;;;;;34.55;16.90;;;0.70;79.70;;;;;;4849831;29;20470;-71
2021/01/13 00:20:16;;;;;;;34.75;16.30;;;0.80;79.20;;;;;;4851369;29;20427;-70
2021/01/13 00:22:47;;;;;;;28.52;15.30;;;0.80;79.20;;;;;;4851278;29;20055;-72
2021/01/13 00:25:15;;;;;;;28.73;15.07;;;0.90;79.30;;;;;;4848924;29;20053;-70
2021/01/13 00:27:41;;;;;;;29.40;15.60;;;0.90;79.40;;;;;;4849586;29;20054;-71
2021/01/13 00:30:10;;;;;;;29.42;15.93;;;0.90;79.40;;;;;;4852937;29;20096;-72
2021/01/13 00:32:38;;;;;;;29.30;14.85;;;0.90;79.40;;;;;;4851475;29;20054;-70
2021/01/13 00:35:06;;;;;;;26.10;14.63;;;0.90;79.30;;;;;;4848041;29;20670;-71
2021/01/13 00:37:35;;;;;;;26.55;15.85;;;0.90;79.30;;;;;;4849784;29;20053;-70
2021/01/13 00:40:03;;;;;;;26.25;15.65;;;0.90;79.30;;;;;;4851314;29;20065;-72
2021/01/13 00:42:30;;;;;;;25.50;15.05;;;1.00;79.70;;;;;;4854038;29;20057;-71
2021/01/13 00:44:57;;;;;;;28.30;15.25;;;1.00;79.40;;;;;;4848848;29;20050;-70
2021/01/13 00:47:24;;;;;;;24.08;14.35;;;1.00;79.30;;;;;;4849755;29;20065;-70
2021/01/13 00:49:51;;;;;;;24.35;15.38;;;1.00;79.20;;;;;;4852439;29;20378;-70
2021/01/13 00:52:18;;;;;;;24.60;13.50;;;1.00;78.70;;;;;;4851249;29;20058;-70
2021/01/13 00:54:45;;;;;;;26.30;14.38;;;1.00;78.60;;;;;;4846974;29;20056;-70
2021/01/13 00:57:12;;;;;;;23.48;13.18;;;1.00;78.60;;;;;;4848024;29;20056;-70
2021/01/13 00:59:39;;;;;;;22.23;12.88;;;1.00;78.60;;;;;;4851472;29;20060;-70
2021/01/13 01:02:06;;;;;;;24.50;13.27;;;1.00;78.60;;;;;;4851330;29;20416;-70
2021/01/13 01:04:33;;;;;;;24.77;12.57;;;1.00;78.60;;;;;;4847210;29;20053;-70
2021/01/13 01:07:03;;;;;;;20.58;11.90;;;1.00;78.50;;;;;;4847665;29;20818;-69
2021/01/13 01:09:30;;;;;;;22.80;12.57;;;0.90;78.20;;;;;;4852653;29;20508;-69
2021/01/13 01:11:57;;;;;;;18.83;10.90;;;1.00;78.20;;;;;;4849401;29;20049;-70
2021/01/13 01:14:24;;;;;;;18.83;10.52;;;0.90;77.20;;;;;;4849100;29;20064;-70
2021/01/13 01:16:51;;;;;;;19.77;11.18;;;0.80;77.00;;;;;;4850066;29;20054;-71
2021/01/13 01:19:18;;;;;;;19.63;11.63;;;0.80;77.00;;;;;;4851639;29;20056;-70
2021/01/13 01:21:45;;;;;;;18.02;9.98;;;0.80;76.90;;;;;;4853717;29;20053;-69
2021/01/13 01:24:13;;;;;;;22.33;11.63;;;0.80;77.00;;;;;;4848874;29;20049;-69
2021/01/13 01:26:44;;;;;;;18.10;10.93;;;0.90;76.80;;;;;;4850781;29;20072;-70
2021/01/13 01:29:11;;;;;;;23.15;10.80;;;1.00;76.50;;;;;;4854245;29;20050;-74
2021/01/13 01:31:38;;;;;;;21.70;10.85;;;1.00;75.70;;;;;;4852780;29;20160;-69
2021/01/13 01:34:05;;;;;;;19.73;9.95;;;1.10;74.80;;;;;;4851875;29;20061;-72
2021/01/13 01:36:32;;;;;;;19.10;10.20;;;1.10;74.60;;;;;;4852170;29;20068;-69
2021/01/13 01:38:59;;;;;;;15.07;8.68;;;1.10;73.70;;;;;;4854291;29;20514;-70
2021/01/13 01:41:26;;;;;;;19.20;9.57;;;1.20;72.40;;;;;;4852700;29;20058;-70
2021/01/13 01:43:53;;;;;;;13.70;7.60;;;1.20;70.90;;;;;;4853115;29;20068;-70
2021/01/13 01:46:23;;;;;;;20.98;9.02;;;1.20;69.10;;;;;;4850680;29;20064;-70
2021/01/13 01:48:53;;;;;;;14.98;8.32;;;1.30;68.10;;;;;;4851675;29;20059;-72
2021/01/13 01:51:22;;;;;;;13.90;7.70;;;1.30;67.10;;;;;;4843389;29;20056;-70
2021/01/13 01:54:13;;;;;;;14.93;8.23;;;1.30;66.60;;;;;;4855743;29;20054;-71
2021/01/13 01:56:42;;;;;;;12.77;7.38;;;1.30;66.00;;;;;;4849668;29;20423;-70
2021/01/13 01:59:11;;;;;;;16.08;7.53;;;1.30;65.50;;;;;;4857746;29;20144;-73
2021/01/13 02:01:40;;;;;;;11.10;6.65;;;1.20;65.00;;;;;;4857283;29;20061;-70
2021/01/13 02:04:18;;;;;;;14.15;7.32;;;1.30;65.30;;;;;;4854677;29;20432;-72
2021/01/13 02:07:29;;;;;;;12.07;7.25;;;1.30;65.80;;;;;;4855351;29;20064;-70
2021/01/13 02:10:01;;;;;;;14.73;6.70;;;1.30;66.10;;;;;;4857569;29;20053;-69
2021/01/13 02:12:31;;;;;;;13.85;6.82;;;1.30;65.30;;;;;;4857004;29;20049;-69
2021/01/13 02:15:00;;;;;;;15.73;6.90;;;1.20;64.90;;;;;;4853318;29;20052;-71
2021/01/13 02:17:32;;;;;;;11.65;6.43;;;1.30;65.30;;;;;;4853416;29;20053;-72
2021/01/13 02:20:11;;;;;;;14.70;6.78;;;1.30;65.00;;;;;;4855436;29;20065;-72
2021/01/13 02:22:54;;;;;;;17.95;8.23;;;1.30;64.80;;;;;;4854924;29;20062;-69
2021/01/13 02:26:05;;;;;;;20.40;9.02;;;1.40;64.50;;;;;;4853070;29;20045;-72
2021/01/13 02:28:42;;;;;;;16.27;7.75;;;1.40;63.30;;;;;;4857935;29;20064;-70
2021/01/13 02:31:30;;;;;;;14.52;7.40;;;1.40;60.30;;;;;;4856267;29;20065;-71
2021/01/13 02:34:08;;;;;;;20.27;7.40;;;1.40;61.20;;;;;;4855000;29;20057;-72
2021/01/13 02:37:17;;;;;;;14.77;6.88;;;1.40;62.30;;;;;;4854689;29;20067;-70
2021/01/13 02:39:46;;;;;;;10.73;6.32;;;1.40;63.10;;;;;;4852071;29;20057;-72
2021/01/13 02:42:21;;;;;;;13.85;7.32;;;1.40;62.90;;;;;;4855950;29;20056;-71
2021/01/13 02:45:09;;;;;;;17.88;7.88;;;1.30;63.20;;;;;;4852733;29;20049;-71
2021/01/13 02:48:04;;;;;;;16.67;7.07;;;1.30;63.90;;;;;;4853835;29;20085;-70
2021/01/13 02:50:32;;;;;;;13.10;7.30;;;1.40;65.10;;;;;;4849839;29;20057;-72
2021/01/13 02:53:35;;;;;;;14.85;7.28;;;1.40;64.50;;;;;;4856515;29;20054;-70
2021/01/13 02:56:07;;;;;;;15.35;7.65;;;1.30;64.20;;;;;;4839891;29;20558;-71
2021/01/13 02:58:36;;;;;;;10.90;7.32;;;1.30;63.50;;;;;;4856025;29;20053;-73
2021/01/13 03:01:06;;;;;;;13.82;7.45;;;1.30;64.00;;;;;;4855627;29;20046;-70
2021/01/13 03:03:35;;;;;;;15.10;8.05;;;1.30;64.10;;;;;;4856038;29;20053;-71
2021/01/13 03:06:05;;;;;;;16.83;7.82;;;1.30;63.50;;;;;;4854008;29;20071;-71
2021/01/13 03:08:44;;;;;;;17.88;8.52;;;1.30;63.90;;;;;;4854211;29;20050;-72
2021/01/13 03:11:16;;;;;;;14.85;7.70;;;1.30;64.30;;;;;;4856122;29;20061;-70
2021/01/13 03:13:45;;;;;;;15.77;8.50;;;1.30;64.50;;;;;;4858369;29;20053;-71
2021/01/13 03:16:15;;;;;;;15.45;8.82;;;1.30;64.90;;;;;;4853167;29;20054;-70
2021/01/13 03:18:56;;;;;;;19.25;9.77;;;1.30;65.20;;;;;;4857571;29;20057;-70
2021/01/13 03:21:31;;;;;;;16.08;8.95;;;1.30;65.00;;;;;;4854757;29;20076;-70
2021/01/13 03:24:06;;;;;;;15.10;9.40;;;1.30;65.00;;;;;;4854554;29;20049;-71
2021/01/13 03:26:37;;;;;;;14.68;8.75;;;1.30;65.30;;;;;;4854479;29;20061;-72
2021/01/13 03:29:05;;;;;;;18.42;9.10;;;1.30;65.30;;;;;;4855964;29;20065;-71
2021/01/13 03:31:50;;;;;;;17.52;9.50;;;1.30;65.70;;;;;;4855698;29;20061;-69
2021/01/13 03:34:33;;;;;;;15.63;8.65;;;1.30;66.30;;;;;;4851147;29;20064;-70
2021/01/13 03:37:17;;;;;;;13.40;9.25;;;1.30;66.90;;;;;;4850893;29;20575;-71
2021/01/13 03:39:44;;;;;;;14.90;8.60;;;1.30;67.70;;;;;;4855429;29;20054;-72
2021/01/13 03:42:15;;;;;;;21.95;9.18;;;1.30;67.00;;;;;;4854810;29;20064;-71
2021/01/13 03:44:43;;;;;;;13.20;8.02;;;1.30;67.10;;;;;;4851691;29;20068;-70
2021/01/13 03:47:46;;;;;;;14.60;8.15;;;1.30;67.00;;;;;;4853857;29;20072;-72
2021/01/13 03:50:24;;;;;;;14.02;7.82;;;1.30;66.20;;;;;;4835117;29;20062;-71
2021/01/13 03:53:01;;;;;;;14.20;7.50;;;1.40;65.60;;;;;;4854349;29;20160;-71
2021/01/13 03:55:30;;;;;;;13.88;7.50;;;1.30;65.30;;;;;;4853505;29;20041;-72
2021/01/13 03:58:41;;;;;;;13.57;8.02;;;1.30;64.70;;;;;;4854778;29;20056;-72
2021/01/13 04:01:45;;;;;;;12.43;7.60;;;1.40;64.40;;;;;;4855399;29;20065;-71
2021/01/13 04:04:24;;;;;;;15.63;7.10;;;1.40;63.70;;;;;;4853516;29;20065;-70
2021/01/13 04:07:00;;;;;;;13.48;7.65;;;1.40;63.10;;;;;;4852448;29;20063;-70
2021/01/13 04:09:31;;;;;;;14.73;7.45;;;1.40;61.20;;;;;;4854975;29;20084;-71
2021/01/13 04:12:11;;;;;;;10.48;7.00;;;1.40;60.80;;;;;;4856501;29;20053;-72
2021/01/13 04:14:55;;;;;;;11.93;6.95;;;1.40;60.00;;;;;;4850860;29;20531;-70
2021/01/13 04:17:23;;;;;;;17.85;7.25;;;1.30;59.80;;;;;;4854683;29;20188;-71
2021/01/13 04:19:51;;;;;;;13.82;6.63;;;1.30;59.50;;;;;;4855124;29;20509;-71
2021/01/13 04:22:20;;;;;;;12.30;6.70;;;1.30;59.50;;;;;;4855046;29;20057;-71
2021/01/13 04:24:48;;;;;;;12.98;6.60;;;1.30;59.10;;;;;;4853548;29;20056;-72
2021/01/13 04:27:17;;;;;;;12.95;6.97;;;1.40;59.10;;;;;;4854502;29;20057;-71
2021/01/13 04:29:45;;;;;;;13.13;6.07;;;1.40;57.40;;;;;;4854825;29;20049;-70
2021/01/13 04:32:13;;;;;;;21.15;7.25;;;1.30;57.10;;;;;;4856237;29;20587;-71
2021/01/13 04:34:41;;;;;;;16.52;7.35;;;1.30;57.40;;;;;;4853060;29;20105;-72
2021/01/13 04:37:09;;;;;;;17.73;6.43;;;1.30;56.90;;;;;;4853997;29;20061;-71
2021/01/13 04:39:38;;;;;;;17.30;8.30;;;1.30;56.80;;;;;;4854260;29;20057;-71
2021/01/13 04:42:09;;;;;;;15.95;7.63;;;1.20;56.30;;;;;;4855236;29;20566;-71
2021/01/13 04:44:52;;;;;;;14.15;7.28;;;1.10;58.10;;;;;;4850249;29;20053;-70
2021/01/13 04:47:25;;;;;;;14.18;7.97;;;0.90;59.90;;;;;;4852756;29;20492;-69
2021/01/13 04:49:56;;;;;;;17.35;7.35;;;0.80;62.20;;;;;;4853723;29;20076;-71
2021/01/13 04:52:31;;;;;;;14.27;8.25;;;0.70;62.90;;;;;;4853186;29;20063;-70
2021/01/13 04:55:03;;;;;;;15.13;7.78;;;0.60;64.80;;;;;;4850373;29;20075;-71
2021/01/13 04:58:06;;;;;;;16.50;9.55;;;0.60;65.20;;;;;;4851384;29;20519;-70
2021/01/13 05:01:07;;;;;;;21.05;11.20;;;0.50;66.00;;;;;;4849631;29;20126;-69
2021/01/13 05:03:44;;;;;;;25.02;12.23;;;0.50;66.40;;;;;;4848788;29;20075;-69
2021/01/13 05:06:48;;;;;;;23.17;11.85;;;0.50;68.60;;;;;;4845754;29;20058;-70
2021/01/13 05:09:16;;;;;;;20.88;10.15;;;0.40;67.80;;;;;;4830135;29;20046;-69
2021/01/13 05:11:46;;;;;;;24.35;11.55;;;0.40;68.10;;;;;;4850763;29;20069;-69
2021/01/13 05:14:15;;;;;;;20.67;9.70;;;0.50;67.20;;;;;;4847215;29;20064;-71
2021/01/13 05:17:01;;;;;;;17.38;9.05;;;0.50;65.40;;;;;;4848165;29;20473;-69
2021/01/13 05:20:22;;;;;;;21.77;10.50;;;0.40;65.10;;;;;;4850572;29;20057;-70
2021/01/13 05:22:52;;;;;;;23.08;11.13;;;0.40;65.30;;;;;;4850165;29;20056;-69
2021/01/13 05:25:42;;;;;;;20.92;11.23;;;0.40;65.90;;;;;;4847035;29;20160;-70
2021/01/13 05:28:19;;;;;;;25.25;11.13;;;0.40;65.00;;;;;;4849514;29;20099;-70
2021/01/13 05:30:48;;;;;;;18.48;10.23;;;0.30;65.50;;;;;;4855378;29;20180;-71
2021/01/13 05:33:17;;;;;;;21.00;10.32;;;0.20;67.00;;;;;;4851880;29;20056;-70
2021/01/13 05:35:49;;;;;;;23.45;10.02;;;0.20;66.10;;;;;;4848924;29;20060;-72
2021/01/13 05:38:36;;;;;;;27.92;11.13;;;0.10;66.00;;;;;;4852811;29;20069;-69
2021/01/13 05:41:09;;;;;;;14.77;9.00;;;0.00;67.00;;;;;;4854470;29;20060;-70
2021/01/13 05:43:42;;;;;;;23.48;10.65;;;0.10;70.00;;;;;;4855906;29;20045;-71
2021/01/13 05:46:11;;;;;;;15.38;9.30;;;0.10;67.90;;;;;;4853005;29;20190;-69
2021/01/13 05:48:43;;;;;;;19.45;9.35;;;0.00;68.60;;;;;;4853376;29;20108;-72
2021/01/13 05:51:10;;;;;;;20.85;9.90;;;-0.10;68.80;;;;;;4855409;29;20061;-69
2021/01/13 05:53:38;;;;;;;19.42;9.85;;;0.00;71.50;;;;;;4855684;29;20427;-69
2021/01/13 05:56:07;;;;;;;17.67;10.40;;;-0.10;69.80;;;;;;4852562;29;20061;-68
2021/01/13 05:58:34;;;;;;;19.38;9.95;;;-0.10;69.80;;;;;;4853889;29;20064;-70
2021/01/13 06:01:03;;;;;;;17.48;9.55;;;-0.10;69.80;;;;;;4857103;29;20056;-70
2021/01/13 06:03:31;;;;;;;18.83;10.05;;;-0.20;70.50;;;;;;4851568;29;20637;-71
2021/01/13 06:05:59;;;;;;;18.02;9.90;;;-0.20;70.90;;;;;;4852540;29;20515;-69
2021/01/13 06:08:32;;;;;;;19.98;9.50;;;-0.10;72.00;;;;;;4853721;29;20065;-70
2021/01/13 06:11:01;;;;;;;19.08;9.82;;;-0.20;71.70;;;;;;4854514;29;20504;-68
2021/01/13 06:13:31;;;;;;;21.73;9.55;;;-0.20;72.30;;;;;;4850240;29;20053;-69
2021/01/13 06:16:00;;;;;;;19.08;8.07;;;-0.20;72.40;;;;;;4849412;29;20509;-70
2021/01/13 06:18:30;;;;;;;26.38;9.30;;;-0.20;72.40;;;;;;4850513;29;20422;-68
2021/01/13 06:20:58;;;;;;;21.35;8.60;;;-0.20;72.50;;;;;;4853227;29;20053;-69
2021/01/13 06:23:28;;;;;;;17.10;9.18;;;-0.20;72.40;;;;;;4850997;29;20061;-70
2021/01/13 06:25:56;;;;;;;16.25;8.35;;;-0.10;73.40;;;;;;4847348;29;20045;-70
2021/01/13 06:28:25;;;;;;;15.90;8.32;;;-0.10;71.50;;;;;;4851762;29;20058;-70
2021/01/13 06:31:07;;;;;;;15.98;7.25;;;0.00;70.90;;;;;;4853121;29;20512;-69
2021/01/13 06:34:00;;;;;;;18.60;8.75;;;0.00;69.90;;;;;;4850528;29;20068;-71
2021/01/13 06:36:31;;;;;;;15.02;7.65;;;0.00;68.80;;;;;;4848101;29;20062;-72
2021/01/13 06:38:59;;;;;;;23.27;8.10;;;0.10;68.90;;;;;;4850459;29;20067;-69
2021/01/13 06:41:27;;;;;;;17.40;7.88;;;0.10;68.60;;;;;;4850882;29;20051;-71
2021/01/13 06:44:03;;;;;;;14.30;8.25;;;0.20;66.10;;;;;;4850825;29;20063;-72
2021/01/13 06:46:30;;;;;;;24.27;8.27;;;0.10;65.80;;;;;;4848188;29;20057;-68
2021/01/13 06:49:12;;;;;;;16.52;7.38;;;0.30;65.10;;;;;;4851407;29;20065;-70
2021/01/13 06:51:43;;;;;;;12.70;7.60;;;0.20;64.20;;;;;;4853212;29;20057;-70
2021/01/13 06:54:12;;;;;;;22.00;8.27;;;0.30;64.60;;;;;;4847713;29;20064;-68
2021/01/13 06:56:47;;;;;;;20.58;7.88;;;0.20;62.30;;;;;;4850304;29;20061;-70
2021/01/13 06:59:15;;;;;;;17.67;8.00;;;0.10;63.00;;;;;;4851931;29;20053;-68
2021/01/13 07:01:49;;;;;;;12.07;7.30;;;0.20;64.10;;;;;;4852954;29;20044;-70
2021/01/13 07:04:17;;;;;;;;;;;0.10;64.20;;;;;;4848698;29;20121;-70
2021/01/13 07:06:57;;;;;;;13.05;7.05;;;0.10;64.00;;;;;;4849955;29;19928;-69
2021/01/13 07:09:31;;;;;;;17.75;7.95;;;0.10;64.80;;;;;;4852470;29;20072;-70
2021/01/13 07:12:00;;;;;;;12.63;7.10;;;0.00;63.90;;;;;;4853799;29;20061;-71
2021/01/13 07:14:28;;;;;;;15.38;7.05;;;0.00;64.60;;;;;;4847748;29;20060;-71
2021/01/13 07:16:56;;;;;;;16.20;7.38;;;0.00;64.60;;;;;;4850130;29;20053;-71
2021/01/13 07:19:23;;;;;;;21.50;7.78;;;0.10;64.90;;;;;;4852015;29;20057;-72
2021/01/13 07:21:52;;;;;;;14.75;7.13;;;0.10;64.60;;;;;;4855880;29;20065;-73
2021/01/13 07:24:20;;;;;;;16.40;6.90;;;0.20;64.20;;;;;;4853666;29;20061;-70
2021/01/13 07:26:47;;;;;;;16.00;6.97;;;0.20;62.70;;;;;;4851918;29;20056;-72
2021/01/13 07:29:13;;;;;;;16.33;7.32;;;0.20;62.60;;;;;;4855484;29;20063;-71
2021/01/13 07:31:40;;;;;;;24.20;8.32;;;0.20;62.90;;;;;;4854831;29;20049;-70
2021/01/13 07:34:25;;;;;;;14.80;7.90;;;0.20;62.10;;;;;;4851696;29;20058;-70
2021/01/13 07:36:59;;;;;;;15.20;7.03;;;0.20;62.10;;;;;;4854056;29;20299;-70
2021/01/13 07:39:53;;;;;;;16.60;7.00;;;0.20;62.00;;;;;;4852607;29;22765;-69
2021/01/13 07:42:35;;;;;;;13.43;6.93;;;0.30;61.90;;;;;;4854127;29;20053;-70
2021/01/13 07:45:07;;;;;;;17.00;7.72;;;0.30;61.30;;;;;;4850226;29;20091;-70
2021/01/13 07:48:15;;;;;;;19.08;8.35;;;0.30;61.30;;;;;;4851616;29;20061;-72
2021/01/13 07:50:43;;;;;;;16.67;7.25;;;0.30;61.00;;;;;;4856940;29;20128;-71
2021/01/13 07:53:23;;;;;;;17.60;7.68;;;0.30;60.60;;;;;;4856685;29;20057;-70
2021/01/13 07:55:57;;;;;;;26.20;13.02;;;0.40;60.00;;;;;;4857580;29;20050;-70
2021/01/13 07:58:27;;;;;;;19.27;8.70;;;0.40;59.20;;;;;;4855725;29;20050;-72
2021/01/13 08:01:33;;;;;;;17.30;7.10;;;0.50;58.30;;;;;;4857698;29;20053;-71
2021/01/13 08:04:38;;;;;;;14.05;7.32;;;0.50;58.30;;;;;;4849775;29;20106;-71
2021/01/13 08:07:14;;;;;;;;;;;0.50;58.30;;;;;;4853733;29;20057;-71
2021/01/13 08:09:48;;;;;;;14.38;7.28;;;0.50;58.00;;;;;;4858998;29;19928;-71
2021/01/13 08:12:58;;;;;;;14.50;6.93;;;0.60;56.90;;;;;;4857500;29;20054;-70
2021/01/13 08:16:07;;;;;;;15.95;7.05;;;0.60;55.70;;;;;;4854330;29;20052;-71
2021/01/13 08:19:11;;;;;;;14.15;6.65;;;0.60;54.90;;;;;;4855985;29;20058;-70
2021/01/13 08:21:44;;;;;;;12.57;6.40;;;0.60;54.50;;;;;;4858259;29;20076;-72
2021/01/13 08:24:19;;;;;;;13.95;6.03;;;0.60;54.10;;;;;;4853359;29;20524;-70
2021/01/13 08:26:47;;;;;;;12.52;6.65;;;0.50;54.40;;;;;;4856917;29;20132;-71
2021/01/13 08:29:21;;;;;;;16.20;6.43;;;0.50;54.60;;;;;;4857687;29;20053;-71
2021/01/13 08:31:51;;;;;;;10.50;5.63;;;0.60;54.50;;;;;;4861517;29;20103;-70
2021/01/13 08:34:22;;;;;;;18.73;6.22;;;0.70;54.10;;;;;;4855399;29;20228;-71
2021/01/13 08:36:53;;;;;;;8.88;5.55;;;0.80;52.60;;;;;;4855873;29;20055;-71
2021/01/13 08:39:28;;;;;;;15.52;5.82;;;0.90;50.90;;;;;;4856756;29;20064;-72
2021/01/13 08:42:18;;;;;;;13.50;5.60;;;0.90;49.40;;;;;;4858452;29;20428;-71
2021/01/13 08:44:45;;;;;;;14.48;5.88;;;0.90;49.00;;;;;;4853131;29;20057;-70
2021/01/13 08:51:14;;;;;;;14.07;6.22;;;0.90;48.00;;;;;;4856531;29;20057;-71
2021/01/13 08:53:42;;;;;;;7.88;5.47;;;1.00;47.30;;;;;;4856933;29;20061;-70
2021/01/13 08:56:10;;;;;;;14.95;6.72;;;1.10;46.70;;;;;;4856136;29;20054;-69
2021/01/13 08:58:42;;;;;;;10.48;5.85;;;1.10;45.60;;;;;;4856374;29;20129;-70
2021/01/13 09:01:37;;;;;;;12.70;6.25;;;1.20;45.60;;;;;;4857222;29;20085;-70
2021/01/13 09:04:14;;;;;;;39.30;15.77;;;1.30;45.00;;;;;;4855991;29;20057;-72
2021/01/13 09:07:02;;;;;;;11.82;5.65;;;1.40;44.90;;;;;;4855913;29;20094;-69
2021/01/13 09:09:32;;;;;;;11.55;5.57;;;1.40;42.00;;;;;;4856994;29;20056;-71
2021/01/13 09:11:59;;;;;;;12.55;5.55;;;1.50;40.40;;;;;;4855535;29;20061;-70
2021/01/13 09:14:28;;;;;;;16.83;5.25;;;1.50;39.90;;;;;;4855544;29;20057;-71
2021/01/13 09:16:56;;;;;;;11.23;5.35;;;1.60;38.80;;;;;;4859843;29;20053;-71
2021/01/13 09:19:38;;;;;;;12.65;5.55;;;1.60;39.60;;;;;;4858352;29;20064;-71
2021/01/13 09:22:07;;;;;;;9.55;5.35;;;1.70;39.60;;;;;;4854755;29;20065;-70
2021/01/13 09:24:37;;;;;;;14.95;5.00;;;1.80;38.90;;;;;;4855608;29;20092;-70
2021/01/13 09:27:06;;;;;;;14.25;5.10;;;1.90;37.50;;;;;;4858706;29;20053;-70
2021/01/13 09:29:48;;;;;;;8.80;4.80;;;2.00;36.60;;;;;;4859863;29;20113;-69
2021/01/13 09:32:19;;;;;;;9.13;4.43;;;2.10;35.70;;;;;;4858536;29;20052;-70
2021/01/13 09:34:46;;;;;;;7.90;5.00;;;2.20;35.70;;;;;;4853973;29;20056;-69
2021/01/13 09:37:14;;;;;;;8.10;4.55;;;2.30;35.00;;;;;;4858046;29;20062;-70
2021/01/13 09:39:56;;;;;;;7.55;4.55;;;2.40;35.40;;;;;;4854573;29;20057;-70
2021/01/13 09:42:35;;;;;;;8.63;4.47;;;2.60;33.30;;;;;;4858212;29;20062;-69
2021/01/13 09:45:04;;;;;;;11.02;5.05;;;2.60;32.90;;;;;;4854529;29;20049;-69
2021/01/13 09:47:32;;;;;;;11.18;4.03;;;2.60;32.30;;;;;;4857761;29;20412;-69
2021/01/13 09:50:00;;;;;;;15.40;4.28;;;2.60;31.80;;;;;;4856596;29;20057;-68
2021/01/13 09:52:40;;;;;;;8.13;4.10;;;2.50;31.60;;;;;;4858151;29;20184;-68
2021/01/13 09:55:08;;;;;;;9.07;4.10;;;2.60;31.50;;;;;;4855259;29;20096;-69
2021/01/13 09:57:36;;;;;;;7.28;3.75;;;2.70;32.00;;;;;;4856512;29;20050;-69
2021/01/13 10:00:07;;;;;;;12.13;4.07;;;2.70;30.90;;;;;;4854198;29;20061;-70
2021/01/13 10:02:34;;;;;;;9.60;4.03;;;2.70;32.00;;;;;;4857563;29;20057;-71
2021/01/13 10:05:02;;;;;;;9.35;3.60;;;2.70;32.20;;;;;;4854268;29;20484;-70
2021/01/13 10:07:31;;;;;;;8.68;3.58;;;2.70;32.60;;;;;;4857861;29;20053;-70
2021/01/13 10:09:58;;;;;;;7.95;3.92;;;2.80;32.00;;;;;;4855767;29;20053;-70
2021/01/13 10:12:37;;;;;;;7.88;3.65;;;2.80;30.00;;;;;;4858444;29;20058;-70
2021/01/13 10:15:07;;;;;;;12.82;3.55;;;2.90;29.40;;;;;;4859139;29;20062;-70
2021/01/13 10:17:35;;;;;;;6.68;3.03;;;2.90;28.10;;;;;;4859560;29;20057;-70
2021/01/13 10:20:14;;;;;;;7.80;3.35;;;2.90;28.40;;;;;;4857356;29;20090;-68
2021/01/13 10:22:42;;;;;;;4.90;3.15;;;3.00;29.10;;;;;;4859682;29;20080;-70
2021/01/13 10:25:10;;;;;;;10.20;3.10;;;3.00;28.50;;;;;;4857042;29;20068;-70
2021/01/13 10:27:42;;;;;;;7.10;2.78;;;3.10;28.60;;;;;;4859876;29;20052;-70
2021/01/13 10:30:11;;;;;;;7.90;3.38;;;3.10;28.30;;;;;;4860632;29;20057;-69
2021/01/13 10:32:50;;;;;;;8.30;3.25;;;3.20;28.60;;;;;;4857763;29;20069;-69
2021/01/13 10:35:19;;;;;;;6.97;2.45;;;3.30;27.90;;;;;;4856630;29;20057;-71
2021/01/13 10:37:53;;;;;;;6.45;2.70;;;3.30;27.20;;;;;;4859757;29;20459;-69
2021/01/13 10:40:21;;;;;;;9.55;3.10;;;3.30;26.90;;;;;;4859276;29;20208;-70
2021/01/13 10:42:49;;;;;;;5.35;2.30;;;3.40;25.90;;;;;;4856945;29;20067;-73
2021/01/13 10:45:19;;;;;;;8.15;2.47;;;3.40;25.20;;;;;;4859090;29;20060;-71
2021/01/13 10:47:54;;;;;;;4.57;2.58;;;3.30;24.40;;;;;;4857306;29;20420;-69
2021/01/13 10:50:23;;;;;;;6.93;2.90;;;3.40;24.90;;;;;;4858173;29;20049;-69
2021/01/13 10:52:55;;;;;;;7.85;2.58;;;3.30;24.00;;;;;;4856416;29;20058;-72
2021/01/13 10:55:23;;;;;;;5.72;2.45;;;3.40;24.20;;;;;;4855593;29;20061;-70
2021/01/13 10:57:51;;;;;;;5.43;3.00;;;3.50;23.70;;;;;;4854862;29;20139;-69
2021/01/13 11:00:23;;;;;;;5.35;2.35;;;3.60;24.10;;;;;;4859385;29;20508;-69
2021/01/13 11:02:54;;;;;;;6.65;3.08;;;3.70;22.20;;;;;;4857030;29;20137;-68
2021/01/13 11:05:24;;;;;;;11.35;2.78;;;3.70;23.00;;;;;;4856928;29;20077;-69
2021/01/13 11:07:53;;;;;;;6.22;1.90;;;3.70;23.50;;;;;;4859889;29;20061;-70
2021/01/13 11:10:21;;;;;;;6.85;2.17;;;3.70;22.20;;;;;;4857457;29;20056;-67
2021/01/13 11:12:58;;;;;;;5.75;1.88;;;3.80;23.00;;;;;;4856351;29;20053;-73
2021/01/13 11:15:26;;;;;;;8.27;2.03;;;3.70;22.20;;;;;;4855532;29;20500;-70
2021/01/13 11:17:56;;;;;;;4.25;1.83;;;3.80;22.30;;;;;;4850887;29;20057;-72
2021/01/13 11:20:28;;;;;;;5.25;1.90;;;3.60;22.10;;;;;;4856818;29;20057;-70
2021/01/13 11:22:57;;;;;;;6.60;2.20;;;3.50;22.10;;;;;;4853875;29;20059;-69
2021/01/13 11:25:27;;;;;;;6.28;2.35;;;3.60;22.10;;;;;;4853718;29;20057;-68
2021/01/13 11:27:55;;;;;;;4.70;2.30;;;3.50;23.30;;;;;;4849952;29;20087;-71
2021/01/13 11:30:23;;;;;;;5.65;2.40;;;3.60;22.90;;;;;;4855593;29;20060;-72
2021/01/13 11:32:53;;;;;;;6.95;2.53;;;3.70;22.90;;;;;;4854497;29;20141;-71
2021/01/13 11:35:26;;;;;;;12.32;3.00;;;3.70;21.10;;;;;;4853350;29;20050;-68
2021/01/13 11:38:20;;;;;;;5.38;2.45;;;3.70;21.50;;;;;;4852398;29;20733;-67
2021/01/13 11:41:02;;;;;;;6.68;2.00;;;3.70;21.70;;;;;;4854811;29;20501;-70
2021/01/13 11:43:53;;;;;;;6.28;2.00;;;3.70;20.30;;;;;;4858207;29;20116;-70
2021/01/13 11:46:28;;;;;;;2.80;1.80;;;3.70;20.20;;;;;;4858148;29;20060;-69
2021/01/13 11:49:10;;;;;;;8.15;2.72;;;3.60;19.60;;;;;;4856656;29;20049;-70
2021/01/13 11:51:43;;;;;;;3.88;2.00;;;3.50;21.00;;;;;;4858450;29;20547;-70
2021/01/13 11:54:11;;;;;;;5.35;1.90;;;3.50;21.00;;;;;;4854630;29;20080;-69
2021/01/13 11:56:38;;;;;;;6.60;2.88;;;3.40;20.50;;;;;;4857712;29;20149;-69
2021/01/13 11:59:05;;;;;;;5.80;2.17;;;3.40;22.00;;;;;;4856048;29;20057;-70
2021/01/13 12:01:35;;;;;;;8.77;2.38;;;3.50;21.60;;;;;;4858566;29;20045;-69
2021/01/13 12:04:04;;;;;;;12.10;2.50;;;3.60;20.70;;;;;;4856960;29;20117;-69
2021/01/13 12:06:32;;;;;;;7.30;2.50;;;3.60;20.50;;;;;;4858014;29;21215;-69
2021/01/13 12:08:59;;;;;;;4.20;1.48;;;3.50;20.50;;;;;;4855622;29;20072;-69
2021/01/13 12:11:25;;;;;;;2.33;1.23;;;3.60;20.40;;;;;;4859452;29;20054;-71
2021/01/13 12:13:53;;;;;;;5.93;1.90;;;3.70;20.30;;;;;;4857393;29;20053;-69
2021/01/13 12:16:22;;;;;;;4.65;1.73;;;3.80;18.70;;;;;;4857774;29;20478;-71
2021/01/13 12:18:51;;;;;;;4.47;1.70;;;3.80;19.80;;;;;;4857871;29;20508;-69
2021/01/13 12:21:28;;;;;;;7.70;2.70;;;3.90;19.50;;;;;;4859159;29;20086;-68
2021/01/13 12:23:56;;;;;;;5.35;2.53;;;4.00;19.10;;;;;;4857543;29;20160;-68
2021/01/13 12:26:29;;;;;;;6.38;1.90;;;3.80;20.20;;;;;;4858972;29;20049;-71
2021/01/13 12:28:57;;;;;;;5.30;1.58;;;3.90;18.40;;;;;;4858174;29;20060;-69
2021/01/13 12:31:33;;;;;;;3.13;1.35;;;3.90;18.10;;;;;;4860773;29;20064;-68
2021/01/13 12:34:00;;;;;;;8.02;1.42;;;3.90;16.50;;;;;;4860144;29;20154;-70
2021/01/13 12:36:29;;;;;;;5.32;1.50;;;3.80;15.30;;;;;;4858082;29;20054;-69
2021/01/13 12:38:58;;;;;;;5.00;1.92;;;3.90;15.40;;;;;;4862366;29;20069;-68
2021/01/13 12:41:26;;;;;;;4.28;1.20;;;3.80;14.10;;;;;;4859213;29;20053;-72
2021/01/13 12:43:55;;;;;;;2.97;1.17;;;3.90;13.60;;;;;;4858693;29;20049;-69
2021/01/13 12:46:30;;;;;;;5.43;1.48;;;3.80;13.70;;;;;;4857359;29;20183;-68
2021/01/13 12:48:57;;;;;;;;;;;3.90;14.20;;;;;;4859562;29;20067;-68
2021/01/13 12:51:24;;;;;;;3.35;1.25;;;3.90;13.30;;;;;;4859465;29;20317;-69
2021/01/13 12:53:55;;;;;;;5.68;1.48;;;3.90;13.00;;;;;;4857361;29;20473;-68
2021/01/13 12:56:23;;;;;;;5.00;1.20;;;3.90;12.30;;;;;;4857037;29;20057;-68
2021/01/13 12:58:50;;;;;;;4.97;1.13;;;3.90;12.60;;;;;;4859357;29;20112;-71
2021/01/13 13:01:18;;;;;;;4.53;1.55;;;3.90;12.10;;;;;;4856102;29;20058;-71
2021/01/13 13:03:45;;;;;;;2.92;1.08;;;3.80;11.80;;;;;;4854940;29;20057;-68
2021/01/13 13:06:13;;;;;;;2.33;1.20;;;3.70;12.00;;;;;;4852304;29;20057;-69
2021/01/13 13:08:40;;;;;;;5.30;1.30;;;3.70;12.50;;;;;;4848673;29;20156;-68
2021/01/13 13:11:11;;;;;;;4.13;1.10;;;3.70;12.50;;;;;;4853646;29;20098;-70
2021/01/13 13:13:38;;;;;;;2.47;1.17;;;3.70;12.80;;;;;;4851273;29;20073;-69
2021/01/13 13:16:09;;;;;;;3.20;1.20;;;3.70;13.40;;;;;;4852235;29;20046;-69
2021/01/13 13:18:37;;;;;;;4.13;0.90;;;3.60;11.90;;;;;;4851477;29;20060;-67
2021/01/13 13:21:08;;;;;;;3.88;1.45;;;3.80;11.20;;;;;;4849179;29;20148;-69
2021/01/13 13:23:36;;;;;;;5.38;1.05;;;3.90;10.70;;;;;;4846476;29;20053;-68